• Join FlightAware (Why Join?)
  • Login
  • US Flag 
04:30PM EDT


 

Airport Tracker/Info


-or-


 

Live Flight TrackerFlight Track Log ✈ KAP5 ✈ 30-Jun-2013 ✈ KMVY - KBOS

Flight Track Log - Related Links

Times and Time Zones

All times are in EDT time to prevent confusion due to time zone crossing. See the KAP5 flight status page for this flight to view local times or setup timezone preferences in your user account.

Time Position Orientation Groundspeed Altitude Reporting Facility
EDT Latitude Longitude Course Direction KTS MPH feet Rate Location/Type
03:41PM 41.6000 -70.6333 343° North 182 209 5,900  Level KA90
03:42PM 41.5873 -70.6914 343° North  Level Estimated
03:42PM 41.6333 -70.6500 340° North 185 213 5,900  Level KA90
03:43PM 41.6089 -70.7000 343° North  Level Estimated
03:43PM 41.6833 -70.6833 334° Northwest 186 214 5,900  Level KA90
03:44PM 41.6304 -70.7087 343° North  Level Estimated
03:44PM 41.7333 -70.7000 346° North 186 214 6,000  Level KA90
03:45PM 41.6519 -70.7173 343° North  Level Estimated
03:45PM 41.7833 -70.7333 334° Northwest 187 215 6,000  Level KA90
03:46PM 41.6735 -70.7260 343° North  Level Estimated
03:46PM 41.8167 -70.7500 340° North 185 213 6,000  Level KA90
03:47PM 41.6950 -70.7347 343° North  Level Estimated
03:47PM 41.8833 -70.7667 349° North 186 214 6,000  Level KA90
03:48PM 41.9167 -70.8000 323° Northwest 184 212 6,000  Level KA90
03:49PM 41.9667 -70.8333 334° Northwest 185 213 6,000 -60 Level KA90
03:50PM 42.0167 -70.8667 334° Northwest 186 214 5,900 -300 Descending KA90
03:51PM 42.0500 -70.9000 323° Northwest 193 222 5,500 -480 Descending KA90
03:52PM 42.1000 -70.9500 323° Northwest 196 226 5,000 -300 Descending KA90
03:53PM 42.1500 -70.9833 334° Northwest 191 220 5,000  Level KA90
03:54PM 42.1833 -71.0167 323° Northwest 181 208 5,000  Level KA90
03:55PM 42.2167 -71.0500 323° Northwest 179 206 5,000  Level KA90
03:56PM 42.2667 -71.0833 334° Northwest 178 205 5,000  Level KA90
03:57PM 42.3167 -71.1167 334° Northwest 178 205 5,000  Level KA90
03:58PM 42.3667 -71.1333 346° North 189 217 5,000  Level KA90
03:59PM 42.4167 -71.1167 14° North 185 213 5,000 -120 Level KA90
04:01PM 42.5000 -71.0500 31° Northeast 193 222 4,700 -300 Descending KA90
04:02PM 42.5333 -70.9833 56° Northeast 185 213 4,100 -840 Descending KA90
04:04PM 42.4469 -70.9912 184° South  Level FlightAware Approximate
04:04PM 42.4667 -70.9500 184° South 155 178 2,500  Level KA90
04:05PM 42.4167 -70.9833 206° Southwest 139 160 1,400 -960 Descending KA90
04:06PM 42.3833 -70.9833 180° South 112 129 500 -900 Descending KA90